Westminster, California
Current Conditions -  °F | °C
As of 12:58 AM on Wednesday 28 Jan 2015 (Local Time) from KSLI Reporting Station
Clear Clear  
Wind Chill: 51°   Ceiling: Unl
Heat Index: 51°   Visibility: 10mi
Dew Point: 51°   Wind: 1mph
Humidity: 99%   Direction: 290°WNW
Pressure: 30.16"   Gusts: NA
Location:  33.76°N, 117.98°W
Report Text: KSLI 280858Z AUTO 29001KT 10SM CLR 11/10 A3016 RMK AO2 SLP216 T01050103 55001
Loading
Personal Weather Stations






























Interactive Weather Map New forecast layout! Learn more

10-Day Weather Forecast

Advertisements
Track Severe Weather on mobile